sensor_id;sensor_type;location;lat;lon;timestamp;P1;durP1;ratioP1;P2;durP2;ratioP2
7833;SDS011;3962;42.696;23.354;2023-07-16T00:02:02;6.93;;;6.63;;
7833;SDS011;3962;42.696;23.354;2023-07-16T00:04:30;5.90;;;5.70;;
7833;SDS011;3962;42.696;23.354;2023-07-16T00:06:56;6.57;;;6.27;;
7833;SDS011;3962;42.696;23.354;2023-07-16T00:09:24;7.10;;;6.80;;
7833;SDS011;3962;42.696;23.354;2023-07-16T00:11:51;6.63;;;6.33;;
7833;SDS011;3962;42.696;23.354;2023-07-16T00:14:18;7.07;;;6.67;;
7833;SDS011;3962;42.696;23.354;2023-07-16T00:16:45;7.00;;;6.70;;
7833;SDS011;3962;42.696;23.354;2023-07-16T00:19:11;6.30;;;6.00;;
7833;SDS011;3962;42.696;23.354;2023-07-16T00:21:39;6.60;;;6.30;;
7833;SDS011;3962;42.696;23.354;2023-07-16T00:24:05;5.97;;;5.77;;
7833;SDS011;3962;42.696;23.354;2023-07-16T00:26:33;5.83;;;5.53;;
7833;SDS011;3962;42.696;23.354;2023-07-16T00:29:00;6.63;;;6.33;;
7833;SDS011;3962;42.696;23.354;2023-07-16T00:31:27;7.23;;;6.83;;
7833;SDS011;3962;42.696;23.354;2023-07-16T00:33:54;6.27;;;5.97;;
7833;SDS011;3962;42.696;23.354;2023-07-16T00:36:21;6.20;;;5.90;;
7833;SDS011;3962;42.696;23.354;2023-07-16T00:38:47;5.90;;;5.60;;
7833;SDS011;3962;42.696;23.354;2023-07-16T00:41:15;7.10;;;6.80;;
7833;SDS011;3962;42.696;23.354;2023-07-16T00:43:43;6.53;;;6.23;;
7833;SDS011;3962;42.696;23.354;2023-07-16T00:46:10;6.07;;;5.77;;
7833;SDS011;3962;42.696;23.354;2023-07-16T00:48:39;5.70;;;5.40;;
7833;SDS011;3962;42.696;23.354;2023-07-16T00:51:07;5.63;;;5.33;;
7833;SDS011;3962;42.696;23.354;2023-07-16T00:53:34;6.83;;;6.43;;
7833;SDS011;3962;42.696;23.354;2023-07-16T00:56:01;6.30;;;6.00;;
7833;SDS011;3962;42.696;23.354;2023-07-16T00:58:28;6.40;;;6.10;;
7833;SDS011;3962;42.696;23.354;2023-07-16T01:00:56;6.30;;;6.00;;
7833;SDS011;3962;42.696;23.354;2023-07-16T01:03:23;6.23;;;5.93;;
7833;SDS011;3962;42.696;23.354;2023-07-16T01:05:53;6.33;;;6.03;;
7833;SDS011;3962;42.696;23.354;2023-07-16T01:08:28;5.83;;;5.63;;
7833;SDS011;3962;42.696;23.354;2023-07-16T01:10:58;5.87;;;5.57;;
7833;SDS011;3962;42.696;23.354;2023-07-16T01:13:26;6.60;;;6.30;;
7833;SDS011;3962;42.696;23.354;2023-07-16T01:15:54;7.00;;;6.60;;
7833;SDS011;3962;42.696;23.354;2023-07-16T01:18:22;6.53;;;6.23;;
7833;SDS011;3962;42.696;23.354;2023-07-16T01:20:49;6.87;;;6.57;;
7833;SDS011;3962;42.696;23.354;2023-07-16T01:26:18;5.73;;;5.53;;
7833;SDS011;3962;42.696;23.354;2023-07-16T01:31:59;6.70;;;6.37;;
7833;SDS011;3962;42.696;23.354;2023-07-16T01:34:26;6.40;;;6.10;;
7833;SDS011;3962;42.696;23.354;2023-07-16T01:36:56;6.57;;;6.13;;
7833;SDS011;3962;42.696;23.354;2023-07-16T01:39:23;6.80;;;6.50;;
7833;SDS011;3962;42.696;23.354;2023-07-16T01:41:50;6.40;;;6.10;;
7833;SDS011;3962;42.696;23.354;2023-07-16T01:44:16;5.93;;;5.63;;
7833;SDS011;3962;42.696;23.354;2023-07-16T01:46:45;6.23;;;5.93;;
7833;SDS011;3962;42.696;23.354;2023-07-16T01:49:19;7.30;;;6.90;;
7833;SDS011;3962;42.696;23.354;2023-07-16T01:51:45;6.07;;;5.77;;
7833;SDS011;3962;42.696;23.354;2023-07-16T01:54:13;5.80;;;5.60;;
7833;SDS011;3962;42.696;23.354;2023-07-16T01:56:39;5.83;;;5.53;;
7833;SDS011;3962;42.696;23.354;2023-07-16T01:59:06;6.33;;;6.03;;
7833;SDS011;3962;42.696;23.354;2023-07-16T02:01:33;6.30;;;6.00;;
7833;SDS011;3962;42.696;23.354;2023-07-16T02:04:01;5.70;;;5.40;;
7833;SDS011;3962;42.696;23.354;2023-07-16T02:06:28;5.83;;;5.53;;
7833;SDS011;3962;42.696;23.354;2023-07-16T02:08:55;6.53;;;6.23;;
7833;SDS011;3962;42.696;23.354;2023-07-16T02:11:21;6.27;;;5.97;;
7833;SDS011;3962;42.696;23.354;2023-07-16T02:13:48;5.70;;;5.50;;
7833;SDS011;3962;42.696;23.354;2023-07-16T02:16:15;5.33;;;5.13;;
7833;SDS011;3962;42.696;23.354;2023-07-16T02:18:42;6.40;;;6.10;;
7833;SDS011;3962;42.696;23.354;2023-07-16T02:21:10;6.00;;;5.70;;
7833;SDS011;3962;42.696;23.354;2023-07-16T02:23:37;6.70;;;6.17;;
7833;SDS011;3962;42.696;23.354;2023-07-16T02:26:04;7.00;;;6.63;;
7833;SDS011;3962;42.696;23.354;2023-07-16T02:28:30;6.83;;;6.53;;
7833;SDS011;3962;42.696;23.354;2023-07-16T02:30:57;5.73;;;5.43;;
7833;SDS011;3962;42.696;23.354;2023-07-16T02:33:24;5.90;;;5.57;;
7833;SDS011;3962;42.696;23.354;2023-07-16T02:35:51;6.17;;;5.77;;
7833;SDS011;3962;42.696;23.354;2023-07-16T02:38:19;7.27;;;6.87;;
7833;SDS011;3962;42.696;23.354;2023-07-16T02:40:46;6.33;;;6.03;;
7833;SDS011;3962;42.696;23.354;2023-07-16T02:43:14;6.10;;;5.80;;
7833;SDS011;3962;42.696;23.354;2023-07-16T02:45:41;6.97;;;6.57;;
7833;SDS011;3962;42.696;23.354;2023-07-16T02:48:08;5.80;;;5.50;;
7833;SDS011;3962;42.696;23.354;2023-07-16T02:50:34;6.57;;;6.27;;
7833;SDS011;3962;42.696;23.354;2023-07-16T02:53:02;5.33;;;5.13;;
7833;SDS011;3962;42.696;23.354;2023-07-16T02:55:31;7.17;;;6.87;;
7833;SDS011;3962;42.696;23.354;2023-07-16T02:57:58;6.13;;;5.83;;
7833;SDS011;3962;42.696;23.354;2023-07-16T03:00:29;6.27;;;6.00;;
7833;SDS011;3962;42.696;23.354;2023-07-16T03:02:56;6.10;;;5.80;;
7833;SDS011;3962;42.696;23.354;2023-07-16T03:05:24;7.13;;;6.73;;
7833;SDS011;3962;42.696;23.354;2023-07-16T03:07:52;7.17;;;6.83;;
7833;SDS011;3962;42.696;23.354;2023-07-16T03:10:19;7.00;;;6.70;;
7833;SDS011;3962;42.696;23.354;2023-07-16T03:12:47;7.23;;;6.93;;
7833;SDS011;3962;42.696;23.354;2023-07-16T03:15:14;6.20;;;5.90;;
7833;SDS011;3962;42.696;23.354;2023-07-16T03:17:41;6.67;;;6.37;;
7833;SDS011;3962;42.696;23.354;2023-07-16T03:20:08;7.90;;;7.50;;
7833;SDS011;3962;42.696;23.354;2023-07-16T03:22:35;7.20;;;6.80;;
7833;SDS011;3962;42.696;23.354;2023-07-16T03:25:02;7.23;;;6.83;;
7833;SDS011;3962;42.696;23.354;2023-07-16T03:27:30;6.63;;;6.33;;
7833;SDS011;3962;42.696;23.354;2023-07-16T03:29:58;7.23;;;6.93;;
7833;SDS011;3962;42.696;23.354;2023-07-16T03:32:25;6.67;;;6.37;;
7833;SDS011;3962;42.696;23.354;2023-07-16T03:34:52;6.50;;;6.20;;
7833;SDS011;3962;42.696;23.354;2023-07-16T03:37:19;7.60;;;7.20;;
7833;SDS011;3962;42.696;23.354;2023-07-16T03:39:45;5.80;;;5.50;;
7833;SDS011;3962;42.696;23.354;2023-07-16T03:42:12;6.13;;;5.83;;
7833;SDS011;3962;42.696;23.354;2023-07-16T03:44:39;6.93;;;6.63;;
7833;SDS011;3962;42.696;23.354;2023-07-16T03:47:07;6.90;;;6.53;;
7833;SDS011;3962;42.696;23.354;2023-07-16T03:49:34;7.87;;;7.37;;
7833;SDS011;3962;42.696;23.354;2023-07-16T03:52:01;7.10;;;6.70;;
7833;SDS011;3962;42.696;23.354;2023-07-16T03:54:28;6.67;;;6.37;;
7833;SDS011;3962;42.696;23.354;2023-07-16T03:56:54;8.57;;;8.18;;
7833;SDS011;3962;42.696;23.354;2023-07-16T03:59:21;7.17;;;6.77;;
7833;SDS011;3962;42.696;23.354;2023-07-16T04:01:48;7.03;;;6.73;;
7833;SDS011;3962;42.696;23.354;2023-07-16T04:04:16;6.63;;;6.23;;
7833;SDS011;3962;42.696;23.354;2023-07-16T04:06:43;6.23;;;5.93;;
7833;SDS011;3962;42.696;23.354;2023-07-16T04:09:10;7.33;;;6.83;;
7833;SDS011;3962;42.696;23.354;2023-07-16T04:11:36;6.40;;;6.10;;
7833;SDS011;3962;42.696;23.354;2023-07-16T04:14:03;7.20;;;6.90;;
7833;SDS011;3962;42.696;23.354;2023-07-16T04:16:30;5.73;;;5.43;;
7833;SDS011;3962;42.696;23.354;2023-07-16T04:18:57;6.67;;;6.33;;
7833;SDS011;3962;42.696;23.354;2023-07-16T04:21:25;6.47;;;6.13;;
7833;SDS011;3962;42.696;23.354;2023-07-16T04:23:52;6.83;;;6.53;;
7833;SDS011;3962;42.696;23.354;2023-07-16T04:26:19;7.47;;;7.07;;
7833;SDS011;3962;42.696;23.354;2023-07-16T04:28:45;7.07;;;6.73;;
7833;SDS011;3962;42.696;23.354;2023-07-16T04:31:12;6.63;;;6.33;;
7833;SDS011;3962;42.696;23.354;2023-07-16T04:33:39;7.93;;;7.63;;
7833;SDS011;3962;42.696;23.354;2023-07-16T04:36:06;6.33;;;6.03;;
7833;SDS011;3962;42.696;23.354;2023-07-16T04:38:34;6.57;;;6.27;;
7833;SDS011;3962;42.696;23.354;2023-07-16T04:41:01;7.53;;;7.13;;
7833;SDS011;3962;42.696;23.354;2023-07-16T04:43:28;7.23;;;6.83;;
7833;SDS011;3962;42.696;23.354;2023-07-16T04:45:54;6.33;;;6.03;;
7833;SDS011;3962;42.696;23.354;2023-07-16T04:48:21;6.10;;;5.80;;
7833;SDS011;3962;42.696;23.354;2023-07-16T04:50:48;6.53;;;6.23;;
7833;SDS011;3962;42.696;23.354;2023-07-16T04:53:16;6.53;;;6.23;;
7833;SDS011;3962;42.696;23.354;2023-07-16T04:55:45;6.87;;;6.57;;
7833;SDS011;3962;42.696;23.354;2023-07-16T04:58:12;8.30;;;7.90;;
7833;SDS011;3962;42.696;23.354;2023-07-16T05:00:38;6.83;;;6.53;;
7833;SDS011;3962;42.696;23.354;2023-07-16T05:03:06;6.23;;;5.93;;
7833;SDS011;3962;42.696;23.354;2023-07-16T05:05:32;7.93;;;7.53;;
7833;SDS011;3962;42.696;23.354;2023-07-16T05:07:59;6.17;;;5.77;;
7833;SDS011;3962;42.696;23.354;2023-07-16T05:10:26;5.63;;;5.43;;
7833;SDS011;3962;42.696;23.354;2023-07-16T05:12:55;6.87;;;6.47;;
7833;SDS011;3962;42.696;23.354;2023-07-16T05:15:21;6.50;;;6.20;;
7833;SDS011;3962;42.696;23.354;2023-07-16T05:17:48;6.63;;;6.33;;
7833;SDS011;3962;42.696;23.354;2023-07-16T05:20:15;6.67;;;6.27;;
7833;SDS011;3962;42.696;23.354;2023-07-16T05:22:42;6.40;;;6.10;;
7833;SDS011;3962;42.696;23.354;2023-07-16T05:25:09;5.10;;;4.90;;
7833;SDS011;3962;42.696;23.354;2023-07-16T05:27:35;6.20;;;5.90;;
7833;SDS011;3962;42.696;23.354;2023-07-16T05:30:04;5.97;;;5.67;;
7833;SDS011;3962;42.696;23.354;2023-07-16T05:32:32;5.67;;;5.37;;
7833;SDS011;3962;42.696;23.354;2023-07-16T05:34:59;6.67;;;6.37;;
7833;SDS011;3962;42.696;23.354;2023-07-16T05:37:26;6.13;;;5.83;;
7833;SDS011;3962;42.696;23.354;2023-07-16T05:39:52;6.57;;;6.27;;
7833;SDS011;3962;42.696;23.354;2023-07-16T05:42:19;6.57;;;6.20;;
7833;SDS011;3962;42.696;23.354;2023-07-16T05:44:47;5.73;;;5.53;;
7833;SDS011;3962;42.696;23.354;2023-07-16T05:47:15;6.50;;;6.20;;
7833;SDS011;3962;42.696;23.354;2023-07-16T05:49:42;6.30;;;6.00;;
7833;SDS011;3962;42.696;23.354;2023-07-16T05:52:09;6.13;;;5.83;;
7833;SDS011;3962;42.696;23.354;2023-07-16T05:54:36;6.20;;;5.90;;
7833;SDS011;3962;42.696;23.354;2023-07-16T05:57:03;6.07;;;5.67;;
7833;SDS011;3962;42.696;23.354;2023-07-16T05:59:30;6.10;;;5.80;;
7833;SDS011;3962;42.696;23.354;2023-07-16T06:01:59;6.23;;;5.93;;
7833;SDS011;3962;42.696;23.354;2023-07-16T06:04:28;5.63;;;5.33;;
7833;SDS011;3962;42.696;23.354;2023-07-16T06:06:56;5.57;;;5.37;;
7833;SDS011;3962;42.696;23.354;2023-07-16T06:09:23;6.77;;;6.47;;
7833;SDS011;3962;42.696;23.354;2023-07-16T06:11:50;6.70;;;6.30;;
7833;SDS011;3962;42.696;23.354;2023-07-16T06:14:17;6.47;;;6.17;;
7833;SDS011;3962;42.696;23.354;2023-07-16T06:16:44;5.23;;;5.03;;
7833;SDS011;3962;42.696;23.354;2023-07-16T06:19:11;5.93;;;5.53;;
7833;SDS011;3962;42.696;23.354;2023-07-16T06:21:39;5.80;;;5.57;;
7833;SDS011;3962;42.696;23.354;2023-07-16T06:24:07;6.10;;;5.80;;
7833;SDS011;3962;42.696;23.354;2023-07-16T06:26:34;7.83;;;6.23;;
7833;SDS011;3962;42.696;23.354;2023-07-16T06:29:01;5.63;;;5.40;;
7833;SDS011;3962;42.696;23.354;2023-07-16T06:31:28;5.47;;;5.17;;
7833;SDS011;3962;42.696;23.354;2023-07-16T06:33:55;5.80;;;5.50;;
7833;SDS011;3962;42.696;23.354;2023-07-16T06:36:21;5.80;;;5.50;;
7833;SDS011;3962;42.696;23.354;2023-07-16T06:38:50;5.67;;;5.47;;
7833;SDS011;3962;42.696;23.354;2023-07-16T06:41:19;5.77;;;5.47;;
7833;SDS011;3962;42.696;23.354;2023-07-16T06:43:45;5.70;;;5.50;;
7833;SDS011;3962;42.696;23.354;2023-07-16T06:46:12;5.53;;;5.33;;
7833;SDS011;3962;42.696;23.354;2023-07-16T06:48:39;5.67;;;5.37;;
7833;SDS011;3962;42.696;23.354;2023-07-16T06:51:06;5.37;;;5.17;;
7833;SDS011;3962;42.696;23.354;2023-07-16T06:53:32;5.90;;;5.60;;
7833;SDS011;3962;42.696;23.354;2023-07-16T06:56:02;5.40;;;5.20;;
7833;SDS011;3962;42.696;23.354;2023-07-16T06:58:33;5.37;;;5.17;;
7833;SDS011;3962;42.696;23.354;2023-07-16T07:01:00;5.40;;;5.10;;
7833;SDS011;3962;42.696;23.354;2023-07-16T07:03:27;5.10;;;4.90;;
7833;SDS011;3962;42.696;23.354;2023-07-16T07:05:54;5.10;;;4.90;;
7833;SDS011;3962;42.696;23.354;2023-07-16T07:08:21;4.83;;;4.63;;
7833;SDS011;3962;42.696;23.354;2023-07-16T07:10:48;4.77;;;4.57;;
7833;SDS011;3962;42.696;23.354;2023-07-16T07:13:17;5.70;;;5.40;;
7833;SDS011;3962;42.696;23.354;2023-07-16T07:15:44;4.50;;;4.30;;
7833;SDS011;3962;42.696;23.354;2023-07-16T07:18:11;4.93;;;4.73;;
7833;SDS011;3962;42.696;23.354;2023-07-16T07:20:38;4.90;;;4.70;;
7833;SDS011;3962;42.696;23.354;2023-07-16T07:23:05;5.23;;;5.00;;
7833;SDS011;3962;42.696;23.354;2023-07-16T07:25:32;4.90;;;4.60;;
7833;SDS011;3962;42.696;23.354;2023-07-16T07:27:59;4.80;;;4.60;;
7833;SDS011;3962;42.696;23.354;2023-07-16T07:30:28;4.90;;;4.70;;
7833;SDS011;3962;42.696;23.354;2023-07-16T07:32:54;4.67;;;4.47;;
7833;SDS011;3962;42.696;23.354;2023-07-16T07:35:21;4.80;;;4.60;;
7833;SDS011;3962;42.696;23.354;2023-07-16T07:37:48;5.37;;;4.57;;
7833;SDS011;3962;42.696;23.354;2023-07-16T07:40:15;4.87;;;4.67;;
7833;SDS011;3962;42.696;23.354;2023-07-16T07:42:42;4.60;;;4.40;;
7833;SDS011;3962;42.696;23.354;2023-07-16T07:45:09;5.07;;;4.77;;
7833;SDS011;3962;42.696;23.354;2023-07-16T07:47:37;4.40;;;4.20;;
7833;SDS011;3962;42.696;23.354;2023-07-16T07:50:05;5.03;;;4.83;;
7833;SDS011;3962;42.696;23.354;2023-07-16T07:52:32;5.20;;;4.90;;
7833;SDS011;3962;42.696;23.354;2023-07-16T07:55:00;4.60;;;4.40;;
7833;SDS011;3962;42.696;23.354;2023-07-16T07:57:27;4.60;;;4.40;;
7833;SDS011;3962;42.696;23.354;2023-07-16T07:59:54;5.00;;;4.67;;
7833;SDS011;3962;42.696;23.354;2023-07-16T08:02:22;4.60;;;4.40;;
7833;SDS011;3962;42.696;23.354;2023-07-16T08:04:51;4.33;;;4.13;;
7833;SDS011;3962;42.696;23.354;2023-07-16T08:07:18;5.97;;;5.33;;
7833;SDS011;3962;42.696;23.354;2023-07-16T08:09:45;4.20;;;4.00;;
7833;SDS011;3962;42.696;23.354;2023-07-16T08:12:12;4.90;;;4.50;;
7833;SDS011;3962;42.696;23.354;2023-07-16T08:14:39;4.30;;;4.10;;
7833;SDS011;3962;42.696;23.354;2023-07-16T08:17:06;4.33;;;4.13;;
7833;SDS011;3962;42.696;23.354;2023-07-16T08:19:33;4.90;;;4.60;;
7833;SDS011;3962;42.696;23.354;2023-07-16T08:22:02;4.80;;;4.60;;
7833;SDS011;3962;42.696;23.354;2023-07-16T08:24:28;5.13;;;4.63;;
7833;SDS011;3962;42.696;23.354;2023-07-16T08:26:55;4.13;;;3.93;;
7833;SDS011;3962;42.696;23.354;2023-07-16T08:29:22;4.10;;;3.90;;
7833;SDS011;3962;42.696;23.354;2023-07-16T08:31:49;4.30;;;4.00;;
7833;SDS011;3962;42.696;23.354;2023-07-16T08:34:16;4.95;;;4.70;;
7833;SDS011;3962;42.696;23.354;2023-07-16T08:36:43;4.53;;;4.32;;
7833;SDS011;3962;42.696;23.354;2023-07-16T08:39:11;4.43;;;4.22;;
7833;SDS011;3962;42.696;23.354;2023-07-16T08:41:38;4.10;;;3.90;;
7833;SDS011;3962;42.696;23.354;2023-07-16T08:44:05;4.63;;;4.43;;
7833;SDS011;3962;42.696;23.354;2023-07-16T08:46:32;4.43;;;4.22;;
7833;SDS011;3962;42.696;23.354;2023-07-16T08:48:59;4.50;;;4.30;;
7833;SDS011;3962;42.696;23.354;2023-07-16T08:51:27;4.43;;;4.23;;
7833;SDS011;3962;42.696;23.354;2023-07-16T08:53:58;4.32;;;4.13;;
7833;SDS011;3962;42.696;23.354;2023-07-16T08:56:26;4.47;;;4.28;;
7833;SDS011;3962;42.696;23.354;2023-07-16T08:58:54;4.63;;;4.43;;
7833;SDS011;3962;42.696;23.354;2023-07-16T09:01:22;4.05;;;3.85;;
7833;SDS011;3962;42.696;23.354;2023-07-16T09:03:48;4.22;;;4.03;;
7833;SDS011;3962;42.696;23.354;2023-07-16T09:06:16;3.90;;;3.70;;
7833;SDS011;3962;42.696;23.354;2023-07-16T09:08:42;4.65;;;4.45;;
7833;SDS011;3962;42.696;23.354;2023-07-16T09:11:10;4.50;;;4.22;;
7833;SDS011;3962;42.696;23.354;2023-07-16T09:13:43;4.10;;;3.90;;
7833;SDS011;3962;42.696;23.354;2023-07-16T09:16:10;5.32;;;4.93;;
7833;SDS011;3962;42.696;23.354;2023-07-16T09:18:39;4.78;;;4.38;;
7833;SDS011;3962;42.696;23.354;2023-07-16T09:21:07;4.10;;;3.90;;
7833;SDS011;3962;42.696;23.354;2023-07-16T09:23:33;4.78;;;4.57;;
7833;SDS011;3962;42.696;23.354;2023-07-16T09:26:01;4.50;;;4.30;;
7833;SDS011;3962;42.696;23.354;2023-07-16T09:28:30;4.38;;;4.18;;
7833;SDS011;3962;42.696;23.354;2023-07-16T09:31:04;4.10;;;3.90;;
7833;SDS011;3962;42.696;23.354;2023-07-16T09:33:32;4.80;;;4.60;;
7833;SDS011;3962;42.696;23.354;2023-07-16T09:35:59;4.15;;;3.95;;
7833;SDS011;3962;42.696;23.354;2023-07-16T09:38:27;4.03;;;3.83;;
7833;SDS011;3962;42.696;23.354;2023-07-16T09:40:55;4.40;;;4.20;;
7833;SDS011;3962;42.696;23.354;2023-07-16T09:43:23;4.60;;;4.40;;
7833;SDS011;3962;42.696;23.354;2023-07-16T09:45:50;4.90;;;4.60;;
7833;SDS011;3962;42.696;23.354;2023-07-16T09:48:18;4.50;;;4.20;;
7833;SDS011;3962;42.696;23.354;2023-07-16T09:50:46;4.15;;;3.95;;
7833;SDS011;3962;42.696;23.354;2023-07-16T09:53:17;4.55;;;4.35;;
7833;SDS011;3962;42.696;23.354;2023-07-16T09:55:45;5.25;;;4.72;;
7833;SDS011;3962;42.696;23.354;2023-07-16T09:58:14;4.25;;;4.05;;
7833;SDS011;3962;42.696;23.354;2023-07-16T10:00:44;4.53;;;4.22;;
7833;SDS011;3962;42.696;23.354;2023-07-16T10:03:12;4.30;;;4.10;;
7833;SDS011;3962;42.696;23.354;2023-07-16T10:05:42;4.47;;;4.28;;
7833;SDS011;3962;42.696;23.354;2023-07-16T10:08:15;4.72;;;4.50;;
7833;SDS011;3962;42.696;23.354;2023-07-16T10:10:46;4.07;;;3.88;;
7833;SDS011;3962;42.696;23.354;2023-07-16T10:13:14;4.25;;;4.05;;
7833;SDS011;3962;42.696;23.354;2023-07-16T10:15:52;4.55;;;4.35;;
7833;SDS011;3962;42.696;23.354;2023-07-16T10:18:33;5.28;;;4.78;;
7833;SDS011;3962;42.696;23.354;2023-07-16T10:21:03;5.00;;;4.70;;
7833;SDS011;3962;42.696;23.354;2023-07-16T10:23:38;4.78;;;4.47;;
7833;SDS011;3962;42.696;23.354;2023-07-16T10:26:06;4.97;;;4.68;;
7833;SDS011;3962;42.696;23.354;2023-07-16T10:28:35;4.72;;;4.38;;
7833;SDS011;3962;42.696;23.354;2023-07-16T10:31:03;4.65;;;4.45;;
7833;SDS011;3962;42.696;23.354;2023-07-16T10:33:30;4.18;;;3.97;;
7833;SDS011;3962;42.696;23.354;2023-07-16T10:35:57;4.55;;;4.32;;
7833;SDS011;3962;42.696;23.354;2023-07-16T10:38:26;4.30;;;4.10;;
7833;SDS011;3962;42.696;23.354;2023-07-16T10:40:53;4.30;;;4.10;;
7833;SDS011;3962;42.696;23.354;2023-07-16T10:43:20;4.47;;;4.28;;
7833;SDS011;3962;42.696;23.354;2023-07-16T10:45:47;4.15;;;3.95;;
7833;SDS011;3962;42.696;23.354;2023-07-16T10:48:13;4.80;;;4.50;;
7833;SDS011;3962;42.696;23.354;2023-07-16T10:50:40;4.30;;;4.10;;
7833;SDS011;3962;42.696;23.354;2023-07-16T10:53:07;4.25;;;4.05;;
7833;SDS011;3962;42.696;23.354;2023-07-16T10:55:35;4.25;;;4.05;;
7833;SDS011;3962;42.696;23.354;2023-07-16T10:58:03;4.03;;;3.83;;
7833;SDS011;3962;42.696;23.354;2023-07-16T11:00:31;4.32;;;4.13;;
7833;SDS011;3962;42.696;23.354;2023-07-16T11:02:58;5.18;;;4.90;;
7833;SDS011;3962;42.696;23.354;2023-07-16T11:05:25;4.65;;;4.45;;
7833;SDS011;3962;42.696;23.354;2023-07-16T11:07:52;4.35;;;4.10;;
7833;SDS011;3962;42.696;23.354;2023-07-16T11:10:19;4.32;;;4.13;;
7833;SDS011;3962;42.696;23.354;2023-07-16T11:12:49;4.72;;;4.43;;
7833;SDS011;3962;42.696;23.354;2023-07-16T11:15:17;5.20;;;4.90;;
7833;SDS011;3962;42.696;23.354;2023-07-16T11:17:48;4.85;;;4.55;;
7833;SDS011;3962;42.696;23.354;2023-07-16T11:20:15;4.53;;;4.32;;
7833;SDS011;3962;42.696;23.354;2023-07-16T11:22:42;4.75;;;4.55;;
7833;SDS011;3962;42.696;23.354;2023-07-16T11:25:12;4.68;;;4.47;;
7833;SDS011;3962;42.696;23.354;2023-07-16T11:27:40;4.65;;;4.35;;
7833;SDS011;3962;42.696;23.354;2023-07-16T11:30:09;4.40;;;4.15;;
7833;SDS011;3962;42.696;23.354;2023-07-16T11:32:37;4.65;;;4.45;;
7833;SDS011;3962;42.696;23.354;2023-07-16T11:35:08;4.10;;;3.90;;
7833;SDS011;3962;42.696;23.354;2023-07-16T11:37:37;4.43;;;4.22;;
7833;SDS011;3962;42.696;23.354;2023-07-16T11:40:05;4.50;;;4.28;;
7833;SDS011;3962;42.696;23.354;2023-07-16T11:42:33;4.70;;;4.45;;
7833;SDS011;3962;42.696;23.354;2023-07-16T11:45:02;4.28;;;4.07;;
7833;SDS011;3962;42.696;23.354;2023-07-16T11:47:31;4.40;;;4.10;;
7833;SDS011;3962;42.696;23.354;2023-07-16T11:49:58;4.25;;;4.05;;
7833;SDS011;3962;42.696;23.354;2023-07-16T11:52:25;4.80;;;4.60;;
7833;SDS011;3962;42.696;23.354;2023-07-16T11:54:53;4.50;;;4.30;;
7833;SDS011;3962;42.696;23.354;2023-07-16T11:57:20;4.28;;;4.07;;
7833;SDS011;3962;42.696;23.354;2023-07-16T11:59:47;4.53;;;4.25;;
7833;SDS011;3962;42.696;23.354;2023-07-16T12:02:14;4.28;;;4.07;;
7833;SDS011;3962;42.696;23.354;2023-07-16T12:04:42;3.80;;;3.55;;
7833;SDS011;3962;42.696;23.354;2023-07-16T12:07:09;4.32;;;4.13;;
7833;SDS011;3962;42.696;23.354;2023-07-16T12:09:36;4.00;;;3.80;;
7833;SDS011;3962;42.696;23.354;2023-07-16T12:12:03;4.25;;;4.05;;
7833;SDS011;3962;42.696;23.354;2023-07-16T12:14:30;3.97;;;3.78;;
7833;SDS011;3962;42.696;23.354;2023-07-16T12:16:57;4.20;;;4.00;;
7833;SDS011;3962;42.696;23.354;2023-07-16T12:19:24;3.90;;;3.70;;
7833;SDS011;3962;42.696;23.354;2023-07-16T12:21:57;4.20;;;4.00;;
7833;SDS011;3962;42.696;23.354;2023-07-16T12:24:25;4.00;;;3.80;;
7833;SDS011;3962;42.696;23.354;2023-07-16T12:26:53;3.92;;;3.72;;
7833;SDS011;3962;42.696;23.354;2023-07-16T12:29:20;3.72;;;3.53;;
7833;SDS011;3962;42.696;23.354;2023-07-16T12:31:46;4.40;;;4.10;;
7833;SDS011;3962;42.696;23.354;2023-07-16T12:34:13;4.32;;;4.13;;
7833;SDS011;3962;42.696;23.354;2023-07-16T12:36:40;3.60;;;3.40;;
7833;SDS011;3962;42.696;23.354;2023-07-16T12:39:08;4.03;;;3.83;;
7833;SDS011;3962;42.696;23.354;2023-07-16T12:41:35;4.20;;;4.00;;
7833;SDS011;3962;42.696;23.354;2023-07-16T12:44:02;4.05;;;3.85;;
7833;SDS011;3962;42.696;23.354;2023-07-16T12:46:29;3.90;;;3.70;;
7833;SDS011;3962;42.696;23.354;2023-07-16T12:48:55;3.97;;;3.78;;
7833;SDS011;3962;42.696;23.354;2023-07-16T12:51:22;4.30;;;4.10;;
7833;SDS011;3962;42.696;23.354;2023-07-16T12:53:49;4.07;;;3.88;;
7833;SDS011;3962;42.696;23.354;2023-07-16T12:56:17;4.20;;;4.00;;
7833;SDS011;3962;42.696;23.354;2023-07-16T12:58:44;3.97;;;3.78;;
7833;SDS011;3962;42.696;23.354;2023-07-16T13:01:11;4.15;;;3.95;;
7833;SDS011;3962;42.696;23.354;2023-07-16T13:03:37;3.75;;;3.50;;
7833;SDS011;3962;42.696;23.354;2023-07-16T13:06:05;4.15;;;3.95;;
7833;SDS011;3962;42.696;23.354;2023-07-16T13:08:32;4.40;;;4.10;;
7833;SDS011;3962;42.696;23.354;2023-07-16T13:11:00;4.70;;;4.50;;
7833;SDS011;3962;42.696;23.354;2023-07-16T13:13:31;3.70;;;3.50;;
7833;SDS011;3962;42.696;23.354;2023-07-16T13:15:58;4.35;;;4.15;;
7833;SDS011;3962;42.696;23.354;2023-07-16T13:18:24;4.30;;;4.10;;
7833;SDS011;3962;42.696;23.354;2023-07-16T13:20:51;3.92;;;3.72;;
7833;SDS011;3962;42.696;23.354;2023-07-16T13:23:18;3.45;;;3.35;;
7833;SDS011;3962;42.696;23.354;2023-07-16T13:25:45;4.03;;;3.83;;
7833;SDS011;3962;42.696;23.354;2023-07-16T13:28:16;3.40;;;3.30;;
7833;SDS011;3962;42.696;23.354;2023-07-16T13:30:44;4.07;;;3.88;;
7833;SDS011;3962;42.696;23.354;2023-07-16T13:33:11;4.00;;;3.80;;
7833;SDS011;3962;42.696;23.354;2023-07-16T13:35:37;4.22;;;4.03;;
7833;SDS011;3962;42.696;23.354;2023-07-16T13:38:04;4.05;;;3.85;;
7833;SDS011;3962;42.696;23.354;2023-07-16T13:40:31;4.10;;;3.90;;
7833;SDS011;3962;42.696;23.354;2023-07-16T13:42:58;3.78;;;3.58;;
7833;SDS011;3962;42.696;23.354;2023-07-16T13:45:24;3.95;;;3.75;;
7833;SDS011;3962;42.696;23.354;2023-07-16T13:47:53;4.32;;;4.10;;
7833;SDS011;3962;42.696;23.354;2023-07-16T13:50:20;4.10;;;3.90;;
7833;SDS011;3962;42.696;23.354;2023-07-16T13:52:48;4.18;;;3.97;;
7833;SDS011;3962;42.696;23.354;2023-07-16T13:55:15;3.95;;;3.85;;
7833;SDS011;3962;42.696;23.354;2023-07-16T13:57:42;4.03;;;3.83;;
7833;SDS011;3962;42.696;23.354;2023-07-16T14:00:09;4.45;;;4.25;;
7833;SDS011;3962;42.696;23.354;2023-07-16T14:02:36;4.40;;;4.13;;
7833;SDS011;3962;42.696;23.354;2023-07-16T14:05:05;4.30;;;4.00;;
7833;SDS011;3962;42.696;23.354;2023-07-16T14:07:34;4.38;;;4.07;;
7833;SDS011;3962;42.696;23.354;2023-07-16T14:10:00;4.15;;;3.95;;
7833;SDS011;3962;42.696;23.354;2023-07-16T14:12:27;4.25;;;3.97;;
7833;SDS011;3962;42.696;23.354;2023-07-16T14:14:54;4.47;;;4.13;;
7833;SDS011;3962;42.696;23.354;2023-07-16T14:17:21;4.10;;;3.90;;
7833;SDS011;3962;42.696;23.354;2023-07-16T14:19:48;4.00;;;3.80;;
7833;SDS011;3962;42.696;23.354;2023-07-16T14:22:16;4.55;;;4.25;;
7833;SDS011;3962;42.696;23.354;2023-07-16T14:24:43;4.32;;;4.13;;
7833;SDS011;3962;42.696;23.354;2023-07-16T14:27:11;4.38;;;4.18;;
7833;SDS011;3962;42.696;23.354;2023-07-16T14:29:39;4.10;;;3.90;;
7833;SDS011;3962;42.696;23.354;2023-07-16T14:32:06;4.18;;;3.97;;
7833;SDS011;3962;42.696;23.354;2023-07-16T14:34:33;4.68;;;4.47;;
7833;SDS011;3962;42.696;23.354;2023-07-16T14:36:59;3.92;;;3.72;;
7833;SDS011;3962;42.696;23.354;2023-07-16T14:39:27;4.10;;;3.90;;
7833;SDS011;3962;42.696;23.354;2023-07-16T14:41:55;4.30;;;4.10;;
7833;SDS011;3962;42.696;23.354;2023-07-16T14:44:22;4.38;;;4.10;;
7833;SDS011;3962;42.696;23.354;2023-07-16T14:46:49;4.45;;;4.25;;
7833;SDS011;3962;42.696;23.354;2023-07-16T14:49:15;4.82;;;4.53;;
7833;SDS011;3962;42.696;23.354;2023-07-16T14:51:42;4.10;;;3.90;;
7833;SDS011;3962;42.696;23.354;2023-07-16T14:54:09;4.47;;;4.28;;
7833;SDS011;3962;42.696;23.354;2023-07-16T14:56:37;4.85;;;4.55;;
7833;SDS011;3962;42.696;23.354;2023-07-16T14:59:04;4.80;;;4.60;;
7833;SDS011;3962;42.696;23.354;2023-07-16T15:01:31;4.75;;;4.55;;
7833;SDS011;3962;42.696;23.354;2023-07-16T15:03:57;4.50;;;4.30;;
7833;SDS011;3962;42.696;23.354;2023-07-16T15:06:24;4.53;;;4.32;;
7833;SDS011;3962;42.696;23.354;2023-07-16T15:08:51;4.32;;;4.13;;